sensor_id;sensor_type;location;lat;lon;timestamp;temperature;humidity
69589;SHT31;56792;50.644;17.984;2023-04-03T00:01:12;3.78;72.18
69589;SHT31;56792;50.644;17.984;2023-04-03T00:03:42;3.78;72.08
69589;SHT31;56792;50.644;17.984;2023-04-03T00:06:10;3.78;72.08
69589;SHT31;56792;50.644;17.984;2023-04-03T00:08:39;3.76;72.11
69589;SHT31;56792;50.644;17.984;2023-04-03T00:11:07;3.75;71.98
69589;SHT31;56792;50.644;17.984;2023-04-03T00:13:36;3.73;71.83
69589;SHT31;56792;50.644;17.984;2023-04-03T00:16:06;3.71;71.80
69589;SHT31;56792;50.644;17.984;2023-04-03T00:18:36;3.70;71.75
69589;SHT31;56792;50.644;17.984;2023-04-03T00:21:06;3.67;71.89
69589;SHT31;56792;50.644;17.984;2023-04-03T00:23:36;3.66;71.83
69589;SHT31;56792;50.644;17.984;2023-04-03T00:26:04;3.66;71.82
69589;SHT31;56792;50.644;17.984;2023-04-03T00:28:32;3.64;71.79
69589;SHT31;56792;50.644;17.984;2023-04-03T00:31:00;3.62;71.76
69589;SHT31;56792;50.644;17.984;2023-04-03T00:33:29;3.63;71.67
69589;SHT31;56792;50.644;17.984;2023-04-03T00:35:57;3.62;71.70
69589;SHT31;56792;50.644;17.984;2023-04-03T00:38:25;3.61;71.63
69589;SHT31;56792;50.644;17.984;2023-04-03T00:40:53;3.59;71.61
69589;SHT31;56792;50.644;17.984;2023-04-03T00:43:22;3.58;71.53
69589;SHT31;56792;50.644;17.984;2023-04-03T00:45:53;3.55;71.49
69589;SHT31;56792;50.644;17.984;2023-04-03T00:48:24;3.54;71.60
69589;SHT31;56792;50.644;17.984;2023-04-03T00:50:56;3.52;71.67
69589;SHT31;56792;50.644;17.984;2023-04-03T00:53:27;3.52;71.64
69589;SHT31;56792;50.644;17.984;2023-04-03T00:56:02;3.49;71.51
69589;SHT31;56792;50.644;17.984;2023-04-03T00:58:37;3.46;71.51
69589;SHT31;56792;50.644;17.984;2023-04-03T01:01:11;3.43;71.54
69589;SHT31;56792;50.644;17.984;2023-04-03T01:03:45;3.40;71.57
69589;SHT31;56792;50.644;17.984;2023-04-03T01:06:13;3.37;71.36
69589;SHT31;56792;50.644;17.984;2023-04-03T01:08:48;3.32;71.32
69589;SHT31;56792;50.644;17.984;2023-04-03T01:11:18;3.27;71.28
69589;SHT31;56792;50.644;17.984;2023-04-03T01:13:47;3.24;71.41
69589;SHT31;56792;50.644;17.984;2023-04-03T01:16:15;3.17;71.36
69589;SHT31;56792;50.644;17.984;2023-04-03T01:18:44;3.09;71.40
69589;SHT31;56792;50.644;17.984;2023-04-03T01:21:23;3.02;71.47
69589;SHT31;56792;50.644;17.984;2023-04-03T01:24:26;2.95;71.50
69589;SHT31;56792;50.644;17.984;2023-04-03T01:27:00;2.87;71.52
69589;SHT31;56792;50.644;17.984;2023-04-03T01:29:33;2.77;71.57
69589;SHT31;56792;50.644;17.984;2023-04-03T01:32:01;2.67;71.67
69589;SHT31;56792;50.644;17.984;2023-04-03T01:34:31;2.61;71.73
69589;SHT31;56792;50.644;17.984;2023-04-03T01:36:59;2.55;71.80
69589;SHT31;56792;50.644;17.984;2023-04-03T01:39:28;2.48;71.80
69589;SHT31;56792;50.644;17.984;2023-04-03T01:41:56;2.41;71.94
69589;SHT31;56792;50.644;17.984;2023-04-03T01:44:31;2.35;71.98
69589;SHT31;56792;50.644;17.984;2023-04-03T01:46:59;2.27;71.98
69589;SHT31;56792;50.644;17.984;2023-04-03T01:49:28;2.21;72.00
69589;SHT31;56792;50.644;17.984;2023-04-03T01:51:56;2.15;72.02
69589;SHT31;56792;50.644;17.984;2023-04-03T01:54:24;2.08;72.16
69589;SHT31;56792;50.644;17.984;2023-04-03T01:56:53;2.04;72.30
69589;SHT31;56792;50.644;17.984;2023-04-03T01:59:21;2.00;72.46
69589;SHT31;56792;50.644;17.984;2023-04-03T02:01:50;1.95;72.49
69589;SHT31;56792;50.644;17.984;2023-04-03T02:04:18;1.93;72.56
69589;SHT31;56792;50.644;17.984;2023-04-03T02:06:46;1.92;72.48
69589;SHT31;56792;50.644;17.984;2023-04-03T02:09:14;1.90;72.43
69589;SHT31;56792;50.644;17.984;2023-04-03T02:11:42;1.90;72.40
69589;SHT31;56792;50.644;17.984;2023-04-03T02:14:11;1.86;72.52
69589;SHT31;56792;50.644;17.984;2023-04-03T02:16:39;1.83;72.57
69589;SHT31;56792;50.644;17.984;2023-04-03T02:19:07;1.80;72.68
69589;SHT31;56792;50.644;17.984;2023-04-03T02:21:35;1.77;72.80
69589;SHT31;56792;50.644;17.984;2023-04-03T02:24:04;1.76;72.88
69589;SHT31;56792;50.644;17.984;2023-04-03T02:26:34;1.72;72.91
69589;SHT31;56792;50.644;17.984;2023-04-03T02:29:02;1.70;73.02
69589;SHT31;56792;50.644;17.984;2023-04-03T02:31:30;1.67;73.03
69589;SHT31;56792;50.644;17.984;2023-04-03T02:33:59;1.64;73.15
69589;SHT31;56792;50.644;17.984;2023-04-03T02:36:28;1.62;73.08
69589;SHT31;56792;50.644;17.984;2023-04-03T02:38:57;1.58;73.10
69589;SHT31;56792;50.644;17.984;2023-04-03T02:41:26;1.56;73.18
69589;SHT31;56792;50.644;17.984;2023-04-03T02:44:00;1.54;73.11
69589;SHT31;56792;50.644;17.984;2023-04-03T02:46:31;1.51;73.13
69589;SHT31;56792;50.644;17.984;2023-04-03T02:48:59;1.46;73.12
69589;SHT31;56792;50.644;17.984;2023-04-03T02:51:28;1.46;73.13
69589;SHT31;56792;50.644;17.984;2023-04-03T02:53:57;1.47;73.08
69589;SHT31;56792;50.644;17.984;2023-04-03T02:56:27;1.46;73.05
69589;SHT31;56792;50.644;17.984;2023-04-03T02:58:55;1.46;73.13
69589;SHT31;56792;50.644;17.984;2023-04-03T03:01:23;1.44;73.04
69589;SHT31;56792;50.644;17.984;2023-04-03T03:03:54;1.42;73.10
69589;SHT31;56792;50.644;17.984;2023-04-03T03:06:22;1.41;73.10
69589;SHT31;56792;50.644;17.984;2023-04-03T03:08:50;1.37;73.17
69589;SHT31;56792;50.644;17.984;2023-04-03T03:11:19;1.35;73.21
69589;SHT31;56792;50.644;17.984;2023-04-03T03:13:47;1.32;73.24
69589;SHT31;56792;50.644;17.984;2023-04-03T03:16:16;1.29;73.33
69589;SHT31;56792;50.644;17.984;2023-04-03T03:18:44;1.24;73.40
69589;SHT31;56792;50.644;17.984;2023-04-03T03:21:13;1.20;73.48
69589;SHT31;56792;50.644;17.984;2023-04-03T03:23:41;1.16;73.52
69589;SHT31;56792;50.644;17.984;2023-04-03T03:26:10;1.12;73.54
69589;SHT31;56792;50.644;17.984;2023-04-03T03:28:39;1.10;73.68
69589;SHT31;56792;50.644;17.984;2023-04-03T03:31:08;1.09;73.77
69589;SHT31;56792;50.644;17.984;2023-04-03T03:33:38;1.09;73.84
69589;SHT31;56792;50.644;17.984;2023-04-03T03:36:06;1.09;73.87
69589;SHT31;56792;50.644;17.984;2023-04-03T03:38:35;1.09;73.96
69589;SHT31;56792;50.644;17.984;2023-04-03T03:41:04;1.07;74.00
69589;SHT31;56792;50.644;17.984;2023-04-03T03:43:33;1.01;74.04
69589;SHT31;56792;50.644;17.984;2023-04-03T03:46:02;0.97;74.11
69589;SHT31;56792;50.644;17.984;2023-04-03T03:48:31;0.91;74.13
69589;SHT31;56792;50.644;17.984;2023-04-03T03:50:59;0.83;74.29
69589;SHT31;56792;50.644;17.984;2023-04-03T03:53:30;0.74;74.35
69589;SHT31;56792;50.644;17.984;2023-04-03T03:56:02;0.69;74.48
69589;SHT31;56792;50.644;17.984;2023-04-03T03:58:31;0.63;74.65
69589;SHT31;56792;50.644;17.984;2023-04-03T04:01:00;0.59;74.84
69589;SHT31;56792;50.644;17.984;2023-04-03T04:03:32;0.57;74.84
69589;SHT31;56792;50.644;17.984;2023-04-03T04:06:01;0.54;74.91
69589;SHT31;56792;50.644;17.984;2023-04-03T04:08:30;0.51;74.97
69589;SHT31;56792;50.644;17.984;2023-04-03T04:10:58;0.47;75.03
69589;SHT31;56792;50.644;17.984;2023-04-03T04:13:28;0.41;75.20
69589;SHT31;56792;50.644;17.984;2023-04-03T04:15:56;0.37;75.40
69589;SHT31;56792;50.644;17.984;2023-04-03T04:18:24;0.32;75.44
69589;SHT31;56792;50.644;17.984;2023-04-03T04:20:52;0.28;75.50
69589;SHT31;56792;50.644;17.984;2023-04-03T04:23:21;0.25;75.57
69589;SHT31;56792;50.644;17.984;2023-04-03T04:25:50;0.20;75.66
69589;SHT31;56792;50.644;17.984;2023-04-03T04:28:19;0.17;75.79
69589;SHT31;56792;50.644;17.984;2023-04-03T04:30:49;0.14;75.89
69589;SHT31;56792;50.644;17.984;2023-04-03T04:33:18;0.12;75.90
69589;SHT31;56792;50.644;17.984;2023-04-03T04:35:47;0.09;75.94
69589;SHT31;56792;50.644;17.984;2023-04-03T04:38:16;0.04;76.02
69589;SHT31;56792;50.644;17.984;2023-04-03T04:40:44;0.01;76.16
69589;SHT31;56792;50.644;17.984;2023-04-03T04:43:14;0.01;76.16
69589;SHT31;56792;50.644;17.984;2023-04-03T04:45:43;-0.00;76.25
69589;SHT31;56792;50.644;17.984;2023-04-03T04:48:12;-0.01;76.33
69589;SHT31;56792;50.644;17.984;2023-04-03T04:50:40;-0.01;76.28
69589;SHT31;56792;50.644;17.984;2023-04-03T04:53:08;-0.01;76.28
69589;SHT31;56792;50.644;17.984;2023-04-03T04:55:36;-0.02;76.36
69589;SHT31;56792;50.644;17.984;2023-04-03T04:58:05;-0.05;76.42
69589;SHT31;56792;50.644;17.984;2023-04-03T05:00:34;-0.04;76.49
69589;SHT31;56792;50.644;17.984;2023-04-03T05:03:02;-0.04;76.42
69589;SHT31;56792;50.644;17.984;2023-04-03T05:05:31;-0.03;76.53
69589;SHT31;56792;50.644;17.984;2023-04-03T05:07:59;-0.01;76.54
69589;SHT31;56792;50.644;17.984;2023-04-03T05:10:28;0.00;76.56
69589;SHT31;56792;50.644;17.984;2023-04-03T05:12:57;0.04;76.61
69589;SHT31;56792;50.644;17.984;2023-04-03T05:15:26;0.05;76.54
69589;SHT31;56792;50.644;17.984;2023-04-03T05:17:55;0.07;76.51
69589;SHT31;56792;50.644;17.984;2023-04-03T05:20:23;0.10;76.51
69589;SHT31;56792;50.644;17.984;2023-04-03T05:22:52;0.13;76.59
69589;SHT31;56792;50.644;17.984;2023-04-03T05:25:20;0.17;76.60
69589;SHT31;56792;50.644;17.984;2023-04-03T05:27:48;0.19;76.55
69589;SHT31;56792;50.644;17.984;2023-04-03T05:30:17;0.23;76.51
69589;SHT31;56792;50.644;17.984;2023-04-03T05:32:46;0.27;76.57
69589;SHT31;56792;50.644;17.984;2023-04-03T05:35:20;0.32;76.58
69589;SHT31;56792;50.644;17.984;2023-04-03T05:37:50;0.38;76.51
69589;SHT31;56792;50.644;17.984;2023-04-03T05:40:19;0.45;76.43
69589;SHT31;56792;50.644;17.984;2023-04-03T05:42:48;0.52;76.33
69589;SHT31;56792;50.644;17.984;2023-04-03T05:45:18;0.60;76.20
69589;SHT31;56792;50.644;17.984;2023-04-03T05:47:46;0.70;76.13
69589;SHT31;56792;50.644;17.984;2023-04-03T05:50:14;0.82;76.09
69589;SHT31;56792;50.644;17.984;2023-04-03T05:52:44;0.93;75.84
69589;SHT31;56792;50.644;17.984;2023-04-03T05:55:16;1.05;75.58
69589;SHT31;56792;50.644;17.984;2023-04-03T05:57:44;1.20;75.42
69589;SHT31;56792;50.644;17.984;2023-04-03T06:00:13;1.36;75.21
69589;SHT31;56792;50.644;17.984;2023-04-03T06:02:46;1.49;74.90
69589;SHT31;56792;50.644;17.984;2023-04-03T06:05:18;1.61;74.67
69589;SHT31;56792;50.644;17.984;2023-04-03T06:07:46;1.65;74.35
69589;SHT31;56792;50.644;17.984;2023-04-03T06:10:15;1.72;74.31
69589;SHT31;56792;50.644;17.984;2023-04-03T06:12:44;1.79;74.23
69589;SHT31;56792;50.644;17.984;2023-04-03T06:15:12;1.91;73.93
69589;SHT31;56792;50.644;17.984;2023-04-03T06:17:42;2.04;73.60
69589;SHT31;56792;50.644;17.984;2023-04-03T06:20:12;2.14;73.17
69589;SHT31;56792;50.644;17.984;2023-04-03T06:22:40;2.26;73.06
69589;SHT31;56792;50.644;17.984;2023-04-03T06:25:10;2.41;72.75
69589;SHT31;56792;50.644;17.984;2023-04-03T06:27:38;2.56;72.41
69589;SHT31;56792;50.644;17.984;2023-04-03T06:30:08;2.64;72.19
69589;SHT31;56792;50.644;17.984;2023-04-03T06:32:37;2.71;71.88
69589;SHT31;56792;50.644;17.984;2023-04-03T06:35:07;2.79;71.79
69589;SHT31;56792;50.644;17.984;2023-04-03T06:37:36;3.01;71.58
69589;SHT31;56792;50.644;17.984;2023-04-03T06:40:06;3.23;71.05
69589;SHT31;56792;50.644;17.984;2023-04-03T06:42:45;3.42;70.39
69589;SHT31;56792;50.644;17.984;2023-04-03T06:45:13;3.58;69.89
69589;SHT31;56792;50.644;17.984;2023-04-03T06:47:42;3.80;69.93
69589;SHT31;56792;50.644;17.984;2023-04-03T06:50:11;4.10;69.35
69589;SHT31;56792;50.644;17.984;2023-04-03T06:52:40;4.25;68.43
69589;SHT31;56792;50.644;17.984;2023-04-03T06:55:09;4.35;68.10
69589;SHT31;56792;50.644;17.984;2023-04-03T06:57:37;4.45;67.93
69589;SHT31;56792;50.644;17.984;2023-04-03T07:00:06;4.54;67.27
69589;SHT31;56792;50.644;17.984;2023-04-03T07:02:37;4.68;66.86
69589;SHT31;56792;50.644;17.984;2023-04-03T07:05:06;4.77;66.79
69589;SHT31;56792;50.644;17.984;2023-04-03T07:07:35;4.81;66.47
69589;SHT31;56792;50.644;17.984;2023-04-03T07:10:05;4.91;66.24
69589;SHT31;56792;50.644;17.984;2023-04-03T07:12:36;5.14;66.27
69589;SHT31;56792;50.644;17.984;2023-04-03T07:15:06;5.40;66.12
69589;SHT31;56792;50.644;17.984;2023-04-03T07:17:38;5.77;65.44
69589;SHT31;56792;50.644;17.984;2023-04-03T07:20:07;6.02;64.54
69589;SHT31;56792;50.644;17.984;2023-04-03T07:22:37;6.26;64.31
69589;SHT31;56792;50.644;17.984;2023-04-03T07:25:06;6.53;63.68
69589;SHT31;56792;50.644;17.984;2023-04-03T07:27:36;6.49;62.09
69589;SHT31;56792;50.644;17.984;2023-04-03T07:30:06;6.31;61.78
69589;SHT31;56792;50.644;17.984;2023-04-03T07:32:36;6.24;61.61
69589;SHT31;56792;50.644;17.984;2023-04-03T07:35:04;6.34;62.22
69589;SHT31;56792;50.644;17.984;2023-04-03T07:37:33;6.57;61.81
69589;SHT31;56792;50.644;17.984;2023-04-03T07:40:02;6.76;61.17
69589;SHT31;56792;50.644;17.984;2023-04-03T07:42:34;6.96;60.44
69589;SHT31;56792;50.644;17.984;2023-04-03T07:45:02;7.11;60.14
69589;SHT31;56792;50.644;17.984;2023-04-03T07:47:32;7.29;60.04
69589;SHT31;56792;50.644;17.984;2023-04-03T07:50:01;7.49;59.85
69589;SHT31;56792;50.644;17.984;2023-04-03T07:52:29;7.69;58.67
69589;SHT31;56792;50.644;17.984;2023-04-03T07:54:57;7.82;57.94
69589;SHT31;56792;50.644;17.984;2023-04-03T07:57:25;7.95;57.78
69589;SHT31;56792;50.644;17.984;2023-04-03T07:59:54;8.11;57.83
69589;SHT31;56792;50.644;17.984;2023-04-03T08:02:22;8.31;56.90
69589;SHT31;56792;50.644;17.984;2023-04-03T08:04:50;8.52;56.82
69589;SHT31;56792;50.644;17.984;2023-04-03T08:07:19;8.77;56.22
69589;SHT31;56792;50.644;17.984;2023-04-03T08:09:47;8.93;55.53
69589;SHT31;56792;50.644;17.984;2023-04-03T08:12:16;8.96;54.54
69589;SHT31;56792;50.644;17.984;2023-04-03T08:14:44;8.86;54.01
69589;SHT31;56792;50.644;17.984;2023-04-03T08:17:12;8.91;53.92
69589;SHT31;56792;50.644;17.984;2023-04-03T08:19:41;9.01;53.40
69589;SHT31;56792;50.644;17.984;2023-04-03T08:22:09;9.06;53.33
69589;SHT31;56792;50.644;17.984;2023-04-03T08:24:37;8.99;52.35
69589;SHT31;56792;50.644;17.984;2023-04-03T08:27:05;8.57;51.83
69589;SHT31;56792;50.644;17.984;2023-04-03T08:29:33;8.25;52.58
69589;SHT31;56792;50.644;17.984;2023-04-03T08:32:03;8.31;53.26
69589;SHT31;56792;50.644;17.984;2023-04-03T08:34:32;8.72;53.21
69589;SHT31;56792;50.644;17.984;2023-04-03T08:37:02;8.99;51.72
69589;SHT31;56792;50.644;17.984;2023-04-03T08:39:31;9.12;51.08
69589;SHT31;56792;50.644;17.984;2023-04-03T08:41:59;9.37;51.89
69589;SHT31;56792;50.644;17.984;2023-04-03T08:44:39;9.48;50.36
69589;SHT31;56792;50.644;17.984;2023-04-03T08:47:22;9.25;49.08
69589;SHT31;56792;50.644;17.984;2023-04-03T08:49:56;9.00;49.29
69589;SHT31;56792;50.644;17.984;2023-04-03T08:52:31;8.90;48.94
69589;SHT31;56792;50.644;17.984;2023-04-03T08:55:05;8.88;47.89
69589;SHT31;56792;50.644;17.984;2023-04-03T08:57:45;8.74;47.19
69589;SHT31;56792;50.644;17.984;2023-04-03T09:00:18;8.76;47.67
69589;SHT31;56792;50.644;17.984;2023-04-03T09:02:50;8.85;47.89
69589;SHT31;56792;50.644;17.984;2023-04-03T09:05:24;8.76;46.89
69589;SHT31;56792;50.644;17.984;2023-04-03T09:08:12;9.20;47.90
69589;SHT31;56792;50.644;17.984;2023-04-03T09:10:48;9.98;47.91
69589;SHT31;56792;50.644;17.984;2023-04-03T09:13:26;10.70;45.31
69589;SHT31;56792;50.644;17.984;2023-04-03T09:16:05;11.20;44.48
69589;SHT31;56792;50.644;17.984;2023-04-03T09:18:49;12.39;43.15
69589;SHT31;56792;50.644;17.984;2023-04-03T09:21:29;14.56;41.58
69589;SHT31;56792;50.644;17.984;2023-04-03T09:24:08;16.76;39.09
69589;SHT31;56792;50.644;17.984;2023-04-03T09:26:41;17.91;36.45
69589;SHT31;56792;50.644;17.984;2023-04-03T09:29:18;20.07;35.31
69589;SHT31;56792;50.644;17.984;2023-04-03T09:31:50;20.49;33.43
69589;SHT31;56792;50.644;17.984;2023-04-03T09:34:25;21.23;32.73
69589;SHT31;56792;50.644;17.984;2023-04-03T09:36:58;22.95;30.48
69589;SHT31;56792;50.644;17.984;2023-04-03T09:39:32;24.43;29.47
69589;SHT31;56792;50.644;17.984;2023-04-03T09:42:20;25.76;27.71
69589;SHT31;56792;50.644;17.984;2023-04-03T09:44:53;25.61;27.09
69589;SHT31;56792;50.644;17.984;2023-04-03T09:47:26;22.40;27.74
69589;SHT31;56792;50.644;17.984;2023-04-03T09:50:09;19.69;28.89
69589;SHT31;56792;50.644;17.984;2023-04-03T09:52:49;18.26;29.75
69589;SHT31;56792;50.644;17.984;2023-04-03T09:55:19;20.91;28.10
69589;SHT31;56792;50.644;17.984;2023-04-03T09:57:52;22.29;27.03
69589;SHT31;56792;50.644;17.984;2023-04-03T10:00:23;20.19;26.89
69589;SHT31;56792;50.644;17.984;2023-04-03T10:02:56;18.05;28.73
69589;SHT31;56792;50.644;17.984;2023-04-03T10:05:26;16.62;29.64
69589;SHT31;56792;50.644;17.984;2023-04-03T10:08:14;16.76;29.81
69589;SHT31;56792;50.644;17.984;2023-04-03T10:13:52;20.43;27.13
69589;SHT31;56792;50.644;17.984;2023-04-03T10:16:24;18.50;27.71
69589;SHT31;56792;50.644;17.984;2023-04-03T10:19:05;16.70;28.91
69589;SHT31;56792;50.644;17.984;2023-04-03T10:21:57;15.24;29.99
69589;SHT31;56792;50.644;17.984;2023-04-03T10:24:31;14.23;30.71
69589;SHT31;56792;50.644;17.984;2023-04-03T10:27:15;13.40;31.68
69589;SHT31;56792;50.644;17.984;2023-04-03T10:29:55;13.13;32.05
69589;SHT31;56792;50.644;17.984;2023-04-03T10:32:48;13.17;32.24
69589;SHT31;56792;50.644;17.984;2023-04-03T10:35:35;13.76;32.23
69589;SHT31;56792;50.644;17.984;2023-04-03T10:38:12;14.58;31.01
69589;SHT31;56792;50.644;17.984;2023-04-03T10:40:52;14.05;31.24
69589;SHT31;56792;50.644;17.984;2023-04-03T10:43:31;16.90;30.90
69589;SHT31;56792;50.644;17.984;2023-04-03T10:46:09;19.51;28.46
69589;SHT31;56792;50.644;17.984;2023-04-03T10:48:51;22.08;27.09
69589;SHT31;56792;50.644;17.984;2023-04-03T10:51:36;24.45;25.70
69589;SHT31;56792;50.644;17.984;2023-04-03T10:54:12;25.48;24.25
69589;SHT31;56792;50.644;17.984;2023-04-03T10:56:47;23.43;24.49
69589;SHT31;56792;50.644;17.984;2023-04-03T10:59:23;24.69;24.25
69589;SHT31;56792;50.644;17.984;2023-04-03T11:02:00;23.28;23.66
69589;SHT31;56792;50.644;17.984;2023-04-03T11:04:35;20.92;24.70
69589;SHT31;56792;50.644;17.984;2023-04-03T11:07:08;18.78;25.07
69589;SHT31;56792;50.644;17.984;2023-04-03T11:09:44;17.28;25.87
69589;SHT31;56792;50.644;17.984;2023-04-03T11:12:18;16.91;26.84
69589;SHT31;56792;50.644;17.984;2023-04-03T11:14:53;18.24;26.70
69589;SHT31;56792;50.644;17.984;2023-04-03T11:17:26;17.01;26.51
69589;SHT31;56792;50.644;17.984;2023-04-03T11:20:04;15.87;27.22
69589;SHT31;56792;50.644;17.984;2023-04-03T11:22:44;17.66;27.56
69589;SHT31;56792;50.644;17.984;2023-04-03T11:25:20;20.81;26.08
69589;SHT31;56792;50.644;17.984;2023-04-03T11:27:53;19.72;25.54
69589;SHT31;56792;50.644;17.984;2023-04-03T11:30:25;18.06;26.26
69589;SHT31;56792;50.644;17.984;2023-04-03T11:33:13;16.67;27.38
69589;SHT31;56792;50.644;17.984;2023-04-03T11:35:58;18.62;26.72
69589;SHT31;56792;50.644;17.984;2023-04-03T11:38:34;21.97;25.08
69589;SHT31;56792;50.644;17.984;2023-04-03T11:41:07;24.15;23.83
69589;SHT31;56792;50.644;17.984;2023-04-03T11:43:40;24.87;23.07
69589;SHT31;56792;50.644;17.984;2023-04-03T11:46:22;25.25;22.62
69589;SHT31;56792;50.644;17.984;2023-04-03T11:55:42;27.14;22.26
69589;SHT31;56792;50.644;17.984;2023-04-03T11:58:29;26.80;21.71
69589;SHT31;56792;50.644;17.984;2023-04-03T12:01:03;25.97;21.09
69589;SHT31;56792;50.644;17.984;2023-04-03T12:12:55;29.83;19.14
69589;SHT31;56792;50.644;17.984;2023-04-03T12:24:39;21.69;20.95
69589;SHT31;56792;50.644;17.984;2023-04-03T12:30:04;26.56;20.17
69589;SHT31;56792;50.644;17.984;2023-04-03T12:32:45;26.89;19.61
69589;SHT31;56792;50.644;17.984;2023-04-03T12:35:29;24.72;19.89
69589;SHT31;56792;50.644;17.984;2023-04-03T12:38:17;22.59;20.56
69589;SHT31;56792;50.644;17.984;2023-04-03T12:41:10;24.92;20.48
69589;SHT31;56792;50.644;17.984;2023-04-03T12:47:07;27.93;18.46
69589;SHT31;56792;50.644;17.984;2023-04-03T12:49:51;24.67;19.09
69589;SHT31;56792;50.644;17.984;2023-04-03T12:52:23;22.23;19.52
69589;SHT31;56792;50.644;17.984;2023-04-03T12:55:01;23.72;19.47
69589;SHT31;56792;50.644;17.984;2023-04-03T12:57:41;26.50;18.91
69589;SHT31;56792;50.644;17.984;2023-04-03T13:00:29;28.26;17.70
69589;SHT31;56792;50.644;17.984;2023-04-03T13:03:02;27.72;17.75
69589;SHT31;56792;50.644;17.984;2023-04-03T13:05:32;24.87;18.36
69589;SHT31;56792;50.644;17.984;2023-04-03T13:08:02;22.31;19.29
69589;SHT31;56792;50.644;17.984;2023-04-03T13:10:43;20.32;20.44
69589;SHT31;56792;50.644;17.984;2023-04-03T13:13:20;20.12;20.69
69589;SHT31;56792;50.644;17.984;2023-04-03T13:15:49;19.35;20.66
69589;SHT31;56792;50.644;17.984;2023-04-03T13:18:22;21.83;19.92
69589;SHT31;56792;50.644;17.984;2023-04-03T13:20:53;24.51;19.07
69589;SHT31;56792;50.644;17.984;2023-04-03T13:23:31;26.51;18.42
69589;SHT31;56792;50.644;17.984;2023-04-03T13:26:04;27.89;17.62
69589;SHT31;56792;50.644;17.984;2023-04-03T13:28:34;28.83;16.48
69589;SHT31;56792;50.644;17.984;2023-04-03T13:31:07;29.36;16.52
69589;SHT31;56792;50.644;17.984;2023-04-03T13:33:52;30.02;16.64
69589;SHT31;56792;50.644;17.984;2023-04-03T13:36:26;27.01;16.76
69589;SHT31;56792;50.644;17.984;2023-04-03T13:38:59;23.78;18.45
69589;SHT31;56792;50.644;17.984;2023-04-03T13:41:32;22.42;19.10
69589;SHT31;56792;50.644;17.984;2023-04-03T13:44:16;20.72;19.40
69589;SHT31;56792;50.644;17.984;2023-04-03T13:47:00;19.07;20.38
69589;SHT31;56792;50.644;17.984;2023-04-03T13:49:45;18.25;21.03
69589;SHT31;56792;50.644;17.984;2023-04-03T13:52:27;19.10;21.77
69589;SHT31;56792;50.644;17.984;2023-04-03T13:55:02;18.99;21.95
69589;SHT31;56792;50.644;17.984;2023-04-03T13:57:49;18.40;22.98
69589;SHT31;56792;50.644;17.984;2023-04-03T14:00:47;18.09;23.79
69589;SHT31;56792;50.644;17.984;2023-04-03T14:03:19;17.74;23.52
69589;SHT31;56792;50.644;17.984;2023-04-03T14:05:52;16.73;23.67
69589;SHT31;56792;50.644;17.984;2023-04-03T14:08:21;16.05;24.06
69589;SHT31;56792;50.644;17.984;2023-04-03T14:10:49;15.31;23.93
69589;SHT31;56792;50.644;17.984;2023-04-03T14:13:20;14.41;24.57
69589;SHT31;56792;50.644;17.984;2023-04-03T14:15:48;13.76;25.34
69589;SHT31;56792;50.644;17.984;2023-04-03T14:18:18;13.37;26.33
69589;SHT31;56792;50.644;17.984;2023-04-03T14:20:47;13.26;27.04
69589;SHT31;56792;50.644;17.984;2023-04-03T14:23:16;13.28;27.16
69589;SHT31;56792;50.644;17.984;2023-04-03T14:25:44;13.29;27.37
69589;SHT31;56792;50.644;17.984;2023-04-03T14:28:14;13.21;27.45
69589;SHT31;56792;50.644;17.984;2023-04-03T14:30:47;12.98;28.08
69589;SHT31;56792;50.644;17.984;2023-04-03T14:33:18;12.79;28.87
69589;SHT31;56792;50.644;17.984;2023-04-03T14:35:47;12.69;28.77
69589;SHT31;56792;50.644;17.984;2023-04-03T14:38:21;12.37;28.66
69589;SHT31;56792;50.644;17.984;2023-04-03T14:40:54;11.94;29.49
69589;SHT31;56792;50.644;17.984;2023-04-03T14:43:23;11.45;29.52
69589;SHT31;56792;50.644;17.984;2023-04-03T14:45:52;11.03;30.20
69589;SHT31;56792;50.644;17.984;2023-04-03T14:48:21;10.89;30.23
69589;SHT31;56792;50.644;17.984;2023-04-03T14:50:53;10.58;29.98
69589;SHT31;56792;50.644;17.984;2023-04-03T14:53:22;10.23;30.09
69589;SHT31;56792;50.644;17.984;2023-04-03T14:55:51;9.90;30.65
69589;SHT31;56792;50.644;17.984;2023-04-03T14:58:20;9.74;31.21
69589;SHT31;56792;50.644;17.984;2023-04-03T15:00:48;9.74;32.52
69589;SHT31;56792;50.644;17.984;2023-04-03T15:03:18;9.77;32.61
69589;SHT31;56792;50.644;17.984;2023-04-03T15:05:49;9.49;32.23
69589;SHT31;56792;50.644;17.984;2023-04-03T15:08:18;9.24;32.53
69589;SHT31;56792;50.644;17.984;2023-04-03T15:10:49;8.99;32.91
69589;SHT31;56792;50.644;17.984;2023-04-03T15:13:19;8.79;33.65
69589;SHT31;56792;50.644;17.984;2023-04-03T15:15:47;8.58;33.85
69589;SHT31;56792;50.644;17.984;2023-04-03T15:18:17;8.47;34.29
69589;SHT31;56792;50.644;17.984;2023-04-03T15:20:48;8.38;34.10
69589;SHT31;56792;50.644;17.984;2023-04-03T15:23:17;8.28;34.28
69589;SHT31;56792;50.644;17.984;2023-04-03T15:25:46;8.12;34.32
69589;SHT31;56792;50.644;17.984;2023-04-03T15:28:18;8.02;34.98
69589;SHT31;56792;50.644;17.984;2023-04-03T15:30:51;7.90;35.18
69589;SHT31;56792;50.644;17.984;2023-04-03T15:33:19;7.78;35.24
69589;SHT31;56792;50.644;17.984;2023-04-03T15:35:48;7.66;35.03
69589;SHT31;56792;50.644;17.984;2023-04-03T15:38:16;7.59;35.39
69589;SHT31;56792;50.644;17.984;2023-04-03T15:40:45;7.51;35.25
69589;SHT31;56792;50.644;17.984;2023-04-03T15:43:13;7.40;35.47
69589;SHT31;56792;50.644;17.984;2023-04-03T15:45:42;7.28;36.17
69589;SHT31;56792;50.644;17.984;2023-04-03T15:48:11;7.15;36.46
69589;SHT31;56792;50.644;17.984;2023-04-03T15:50:40;7.05;36.47
69589;SHT31;56792;50.644;17.984;2023-04-03T15:53:08;7.02;36.88
69589;SHT31;56792;50.644;17.984;2023-04-03T15:55:37;6.97;36.68
69589;SHT31;56792;50.644;17.984;2023-04-03T15:58:05;6.90;37.01
69589;SHT31;56792;50.644;17.984;2023-04-03T16:00:34;6.84;37.12
69589;SHT31;56792;50.644;17.984;2023-04-03T16:03:05;6.75;37.27
69589;SHT31;56792;50.644;17.984;2023-04-03T16:05:38;6.65;37.25
69589;SHT31;56792;50.644;17.984;2023-04-03T16:08:07;6.55;36.93
69589;SHT31;56792;50.644;17.984;2023-04-03T16:10:36;6.44;37.02
69589;SHT31;56792;50.644;17.984;2023-04-03T16:13:05;6.39;37.38
69589;SHT31;56792;50.644;17.984;2023-04-03T16:15:33;6.33;37.59
69589;SHT31;56792;50.644;17.984;2023-04-03T16:18:03;6.27;37.38
69589;SHT31;56792;50.644;17.984;2023-04-03T16:20:31;6.19;37.68
69589;SHT31;56792;50.644;17.984;2023-04-03T16:23:01;6.13;37.70
69589;SHT31;56792;50.644;17.984;2023-04-03T16:25:30;6.04;38.23
69589;SHT31;56792;50.644;17.984;2023-04-03T16:27:58;5.98;38.38